sensor_id;sensor_type;location;lat;lon;timestamp;P1;durP1;ratioP1;P2;durP2;ratioP2
61460;SDS011;47325;50.506;4.472;2022-12-07T00:03:18;24.80;;;12.10;;
61460;SDS011;47325;50.506;4.472;2022-12-07T00:09:02;20.80;;;12.00;;
61460;SDS011;47325;50.506;4.472;2022-12-07T00:14:46;21.50;;;11.60;;
61460;SDS011;47325;50.506;4.472;2022-12-07T00:20:29;23.50;;;12.30;;
61460;SDS011;47325;50.506;4.472;2022-12-07T00:26:14;21.50;;;12.40;;
61460;SDS011;47325;50.506;4.472;2022-12-07T00:31:57;23.30;;;12.60;;
61460;SDS011;47325;50.506;4.472;2022-12-07T00:37:40;22.60;;;12.40;;
61460;SDS011;47325;50.506;4.472;2022-12-07T00:43:24;22.50;;;11.80;;
61460;SDS011;47325;50.506;4.472;2022-12-07T00:49:07;24.40;;;12.60;;
61460;SDS011;47325;50.506;4.472;2022-12-07T00:54:50;21.50;;;12.10;;
61460;SDS011;47325;50.506;4.472;2022-12-07T01:00:33;21.30;;;12.50;;
61460;SDS011;47325;50.506;4.472;2022-12-07T01:06:18;21.80;;;11.90;;
61460;SDS011;47325;50.506;4.472;2022-12-07T01:12:02;21.10;;;12.30;;
61460;SDS011;47325;50.506;4.472;2022-12-07T01:17:45;19.70;;;12.30;;
61460;SDS011;47325;50.506;4.472;2022-12-07T01:23:28;20.60;;;12.20;;
61460;SDS011;47325;50.506;4.472;2022-12-07T01:29:12;19.10;;;11.70;;
61460;SDS011;47325;50.506;4.472;2022-12-07T01:34:55;20.50;;;11.80;;
61460;SDS011;47325;50.506;4.472;2022-12-07T01:40:38;20.00;;;11.30;;
61460;SDS011;47325;50.506;4.472;2022-12-07T01:46:21;21.20;;;12.20;;
61460;SDS011;47325;50.506;4.472;2022-12-07T01:52:07;20.30;;;11.90;;
61460;SDS011;47325;50.506;4.472;2022-12-07T01:57:53;19.40;;;11.50;;
61460;SDS011;47325;50.506;4.472;2022-12-07T02:03:38;20.00;;;12.10;;
61460;SDS011;47325;50.506;4.472;2022-12-07T02:09:21;20.40;;;12.70;;
61460;SDS011;47325;50.506;4.472;2022-12-07T02:15:05;19.90;;;11.80;;
61460;SDS011;47325;50.506;4.472;2022-12-07T02:20:50;20.40;;;12.20;;
61460;SDS011;47325;50.506;4.472;2022-12-07T02:32:43;20.00;;;12.40;;
61460;SDS011;47325;50.506;4.472;2022-12-07T02:38:28;22.00;;;13.30;;
61460;SDS011;47325;50.506;4.472;2022-12-07T02:44:14;22.30;;;12.20;;
61460;SDS011;47325;50.506;4.472;2022-12-07T02:49:59;20.70;;;13.00;;
61460;SDS011;47325;50.506;4.472;2022-12-07T02:55:44;23.50;;;13.30;;
61460;SDS011;47325;50.506;4.472;2022-12-07T03:01:30;23.10;;;12.70;;
61460;SDS011;47325;50.506;4.472;2022-12-07T03:07:18;22.40;;;12.90;;
61460;SDS011;47325;50.506;4.472;2022-12-07T03:13:07;22.10;;;12.30;;
61460;SDS011;47325;50.506;4.472;2022-12-07T03:18:55;22.40;;;13.20;;
61460;SDS011;47325;50.506;4.472;2022-12-07T03:24:40;20.70;;;12.70;;
61460;SDS011;47325;50.506;4.472;2022-12-07T03:30:24;23.30;;;12.70;;
61460;SDS011;47325;50.506;4.472;2022-12-07T03:36:12;23.40;;;13.00;;
61460;SDS011;47325;50.506;4.472;2022-12-07T03:41:58;22.80;;;12.80;;
61460;SDS011;47325;50.506;4.472;2022-12-07T03:47:45;20.80;;;12.20;;
61460;SDS011;47325;50.506;4.472;2022-12-07T03:53:30;23.70;;;12.60;;
61460;SDS011;47325;50.506;4.472;2022-12-07T03:59:16;21.40;;;12.90;;
61460;SDS011;47325;50.506;4.472;2022-12-07T04:05:01;19.80;;;12.00;;
61460;SDS011;47325;50.506;4.472;2022-12-07T04:10:44;20.60;;;12.20;;
61460;SDS011;47325;50.506;4.472;2022-12-07T04:16:27;20.50;;;12.40;;
61460;SDS011;47325;50.506;4.472;2022-12-07T04:22:10;22.80;;;12.20;;
61460;SDS011;47325;50.506;4.472;2022-12-07T04:27:53;19.80;;;12.20;;
61460;SDS011;47325;50.506;4.472;2022-12-07T04:33:36;21.10;;;12.40;;
61460;SDS011;47325;50.506;4.472;2022-12-07T04:39:21;22.10;;;12.50;;
61460;SDS011;47325;50.506;4.472;2022-12-07T04:45:05;20.80;;;11.90;;
61460;SDS011;47325;50.506;4.472;2022-12-07T04:50:48;22.20;;;12.60;;
61460;SDS011;47325;50.506;4.472;2022-12-07T04:56:31;22.30;;;12.50;;
61460;SDS011;47325;50.506;4.472;2022-12-07T05:02:15;20.70;;;12.30;;
61460;SDS011;47325;50.506;4.472;2022-12-07T05:07:58;22.40;;;12.50;;
61460;SDS011;47325;50.506;4.472;2022-12-07T05:13:42;20.40;;;12.30;;
61460;SDS011;47325;50.506;4.472;2022-12-07T05:19:27;20.90;;;12.50;;
61460;SDS011;47325;50.506;4.472;2022-12-07T05:25:10;22.10;;;12.90;;
61460;SDS011;47325;50.506;4.472;2022-12-07T05:30:53;21.40;;;12.50;;
61460;SDS011;47325;50.506;4.472;2022-12-07T05:36:41;24.70;;;12.70;;
61460;SDS011;47325;50.506;4.472;2022-12-07T05:42:24;23.00;;;13.00;;
61460;SDS011;47325;50.506;4.472;2022-12-07T05:48:07;22.10;;;12.40;;
61460;SDS011;47325;50.506;4.472;2022-12-07T05:53:50;20.60;;;12.00;;
61460;SDS011;47325;50.506;4.472;2022-12-07T05:59:33;22.40;;;12.10;;
61460;SDS011;47325;50.506;4.472;2022-12-07T06:05:18;19.90;;;11.70;;
61460;SDS011;47325;50.506;4.472;2022-12-07T06:11:02;21.10;;;12.20;;
61460;SDS011;47325;50.506;4.472;2022-12-07T06:16:45;20.50;;;11.90;;
61460;SDS011;47325;50.506;4.472;2022-12-07T06:22:28;20.90;;;12.20;;
61460;SDS011;47325;50.506;4.472;2022-12-07T06:28:11;20.10;;;11.70;;
61460;SDS011;47325;50.506;4.472;2022-12-07T06:33:56;20.80;;;11.30;;
61460;SDS011;47325;50.506;4.472;2022-12-07T06:39:39;20.50;;;11.80;;
61460;SDS011;47325;50.506;4.472;2022-12-07T06:45:22;19.10;;;11.20;;
61460;SDS011;47325;50.506;4.472;2022-12-07T06:51:05;18.90;;;11.60;;
61460;SDS011;47325;50.506;4.472;2022-12-07T06:56:48;18.30;;;10.90;;
61460;SDS011;47325;50.506;4.472;2022-12-07T07:02:31;20.30;;;11.00;;
61460;SDS011;47325;50.506;4.472;2022-12-07T07:08:14;19.40;;;11.20;;
61460;SDS011;47325;50.506;4.472;2022-12-07T07:14:05;18.40;;;10.70;;
61460;SDS011;47325;50.506;4.472;2022-12-07T07:19:48;17.50;;;10.40;;
61460;SDS011;47325;50.506;4.472;2022-12-07T07:25:31;18.80;;;10.50;;
61460;SDS011;47325;50.506;4.472;2022-12-07T07:31:14;19.50;;;10.70;;
61460;SDS011;47325;50.506;4.472;2022-12-07T07:36:58;17.80;;;10.40;;
61460;SDS011;47325;50.506;4.472;2022-12-07T07:42:43;18.20;;;10.70;;
61460;SDS011;47325;50.506;4.472;2022-12-07T07:48:30;17.40;;;10.80;;
61460;SDS011;47325;50.506;4.472;2022-12-07T07:54:13;19.30;;;10.80;;
61460;SDS011;47325;50.506;4.472;2022-12-07T07:59:56;20.70;;;10.80;;
61460;SDS011;47325;50.506;4.472;2022-12-07T08:05:40;22.30;;;10.50;;
61460;SDS011;47325;50.506;4.472;2022-12-07T08:11:23;19.70;;;11.00;;
61460;SDS011;47325;50.506;4.472;2022-12-07T08:17:06;20.90;;;10.30;;
61460;SDS011;47325;50.506;4.472;2022-12-07T08:22:50;18.10;;;10.80;;
61460;SDS011;47325;50.506;4.472;2022-12-07T08:28:33;20.60;;;10.70;;
61460;SDS011;47325;50.506;4.472;2022-12-07T08:34:16;18.70;;;10.90;;
61460;SDS011;47325;50.506;4.472;2022-12-07T08:39:59;19.00;;;10.90;;
61460;SDS011;47325;50.506;4.472;2022-12-07T08:45:44;20.40;;;10.80;;
61460;SDS011;47325;50.506;4.472;2022-12-07T08:51:27;21.50;;;10.40;;
61460;SDS011;47325;50.506;4.472;2022-12-07T08:57:10;20.30;;;10.30;;
61460;SDS011;47325;50.506;4.472;2022-12-07T09:02:54;21.20;;;10.60;;
61460;SDS011;47325;50.506;4.472;2022-12-07T09:08:39;20.10;;;10.60;;
61460;SDS011;47325;50.506;4.472;2022-12-07T09:14:24;19.00;;;10.50;;
61460;SDS011;47325;50.506;4.472;2022-12-07T09:20:08;19.70;;;10.70;;
61460;SDS011;47325;50.506;4.472;2022-12-07T09:25:51;19.60;;;10.60;;
61460;SDS011;47325;50.506;4.472;2022-12-07T09:31:34;20.20;;;10.40;;
61460;SDS011;47325;50.506;4.472;2022-12-07T09:37:18;18.00;;;9.60;;
61460;SDS011;47325;50.506;4.472;2022-12-07T09:43:01;17.90;;;10.00;;
61460;SDS011;47325;50.506;4.472;2022-12-07T09:48:44;18.30;;;9.60;;
61460;SDS011;47325;50.506;4.472;2022-12-07T09:54:28;18.70;;;10.30;;
61460;SDS011;47325;50.506;4.472;2022-12-07T10:00:15;17.10;;;9.80;;
61460;SDS011;47325;50.506;4.472;2022-12-07T10:06:05;16.90;;;8.70;;
61460;SDS011;47325;50.506;4.472;2022-12-07T10:12:05;15.70;;;8.90;;
61460;SDS011;47325;50.506;4.472;2022-12-07T10:17:51;15.60;;;8.80;;
61460;SDS011;47325;50.506;4.472;2022-12-07T10:23:34;14.30;;;8.70;;
61460;SDS011;47325;50.506;4.472;2022-12-07T10:29:20;16.20;;;8.70;;
61460;SDS011;47325;50.506;4.472;2022-12-07T10:35:22;13.80;;;8.40;;
61460;SDS011;47325;50.506;4.472;2022-12-07T10:41:08;14.20;;;8.60;;
61460;SDS011;47325;50.506;4.472;2022-12-07T10:59:02;15.30;;;8.30;;
61460;SDS011;47325;50.506;4.472;2022-12-07T11:04:50;15.20;;;8.20;;
61460;SDS011;47325;50.506;4.472;2022-12-07T11:10:40;15.00;;;8.30;;
61460;SDS011;47325;50.506;4.472;2022-12-07T11:16:26;15.20;;;8.10;;
61460;SDS011;47325;50.506;4.472;2022-12-07T11:22:16;15.60;;;8.00;;
61460;SDS011;47325;50.506;4.472;2022-12-07T11:28:06;14.60;;;8.20;;
61460;SDS011;47325;50.506;4.472;2022-12-07T11:33:52;15.70;;;7.60;;
61460;SDS011;47325;50.506;4.472;2022-12-07T11:39:37;14.20;;;7.80;;
61460;SDS011;47325;50.506;4.472;2022-12-07T11:45:23;15.80;;;7.90;;
61460;SDS011;47325;50.506;4.472;2022-12-07T11:51:09;15.60;;;8.10;;
61460;SDS011;47325;50.506;4.472;2022-12-07T11:56:53;16.00;;;7.40;;
61460;SDS011;47325;50.506;4.472;2022-12-07T12:02:41;14.40;;;7.70;;
61460;SDS011;47325;50.506;4.472;2022-12-07T12:08:27;16.40;;;7.90;;
61460;SDS011;47325;50.506;4.472;2022-12-07T12:14:44;13.30;;;7.80;;
61460;SDS011;47325;50.506;4.472;2022-12-07T12:20:30;13.80;;;7.70;;
61460;SDS011;47325;50.506;4.472;2022-12-07T12:26:18;14.50;;;7.80;;
61460;SDS011;47325;50.506;4.472;2022-12-07T12:32:12;11.30;;;6.70;;
61460;SDS011;47325;50.506;4.472;2022-12-07T12:38:21;11.50;;;6.60;;
61460;SDS011;47325;50.506;4.472;2022-12-07T12:43:46;10.80;;;6.00;;
61460;SDS011;47325;50.506;4.472;2022-12-07T13:01:41;8.50;;;4.60;;
61460;SDS011;47325;50.506;4.472;2022-12-07T13:13:32;7.10;;;4.20;;
61460;SDS011;47325;50.506;4.472;2022-12-07T13:25:11;7.50;;;3.90;;
61460;SDS011;47325;50.506;4.472;2022-12-07T13:30:58;7.50;;;3.30;;
61460;SDS011;47325;50.506;4.472;2022-12-07T13:36:43;5.10;;;3.20;;
61460;SDS011;47325;50.506;4.472;2022-12-07T13:42:28;6.40;;;2.90;;
61460;SDS011;47325;50.506;4.472;2022-12-07T13:48:13;5.90;;;3.20;;
61460;SDS011;47325;50.506;4.472;2022-12-07T13:53:59;5.90;;;2.80;;
61460;SDS011;47325;50.506;4.472;2022-12-07T13:59:42;6.50;;;2.90;;
61460;SDS011;47325;50.506;4.472;2022-12-07T14:05:27;5.50;;;2.60;;
61460;SDS011;47325;50.506;4.472;2022-12-07T14:11:12;5.80;;;2.40;;
61460;SDS011;47325;50.506;4.472;2022-12-07T14:17:01;5.10;;;2.40;;
61460;SDS011;47325;50.506;4.472;2022-12-07T14:22:53;5.60;;;2.40;;
61460;SDS011;47325;50.506;4.472;2022-12-07T14:28:33;5.30;;;2.20;;
61460;SDS011;47325;50.506;4.472;2022-12-07T14:34:19;4.20;;;2.20;;
61460;SDS011;47325;50.506;4.472;2022-12-07T14:40:03;4.80;;;2.20;;
61460;SDS011;47325;50.506;4.472;2022-12-07T14:45:46;4.30;;;2.30;;
61460;SDS011;47325;50.506;4.472;2022-12-07T14:51:29;2.90;;;1.90;;
61460;SDS011;47325;50.506;4.472;2022-12-07T14:57:32;3.80;;;2.10;;
61460;SDS011;47325;50.506;4.472;2022-12-07T15:03:15;5.00;;;2.00;;
61460;SDS011;47325;50.506;4.472;2022-12-07T15:08:59;5.00;;;2.20;;
61460;SDS011;47325;50.506;4.472;2022-12-07T15:14:42;4.90;;;2.40;;
61460;SDS011;47325;50.506;4.472;2022-12-07T15:20:25;4.70;;;2.30;;
61460;SDS011;47325;50.506;4.472;2022-12-07T15:26:10;4.30;;;2.20;;
61460;SDS011;47325;50.506;4.472;2022-12-07T15:31:53;3.80;;;2.40;;
61460;SDS011;47325;50.506;4.472;2022-12-07T15:37:41;5.60;;;3.00;;
61460;SDS011;47325;50.506;4.472;2022-12-07T15:43:27;5.70;;;2.10;;
61460;SDS011;47325;50.506;4.472;2022-12-07T15:49:15;6.20;;;2.20;;
61460;SDS011;47325;50.506;4.472;2022-12-07T15:54:58;4.50;;;2.00;;
61460;SDS011;47325;50.506;4.472;2022-12-07T16:00:43;3.70;;;1.90;;
61460;SDS011;47325;50.506;4.472;2022-12-07T16:06:26;3.30;;;1.80;;
61460;SDS011;47325;50.506;4.472;2022-12-07T16:12:09;3.30;;;1.70;;
61460;SDS011;47325;50.506;4.472;2022-12-07T16:17:53;3.90;;;1.90;;
61460;SDS011;47325;50.506;4.472;2022-12-07T16:23:37;3.70;;;1.70;;
61460;SDS011;47325;50.506;4.472;2022-12-07T16:29:21;2.60;;;1.80;;
61460;SDS011;47325;50.506;4.472;2022-12-07T16:35:04;2.40;;;1.60;;
61460;SDS011;47325;50.506;4.472;2022-12-07T16:40:47;11.40;;;7.50;;
61460;SDS011;47325;50.506;4.472;2022-12-07T16:46:30;9.20;;;5.60;;
61460;SDS011;47325;50.506;4.472;2022-12-07T16:52:14;146.90;;;48.50;;
61460;SDS011;47325;50.506;4.472;2022-12-07T16:58:02;109.20;;;52.00;;
61460;SDS011;47325;50.506;4.472;2022-12-07T17:03:45;60.40;;;23.90;;
61460;SDS011;47325;50.506;4.472;2022-12-07T17:09:29;41.20;;;17.30;;
61460;SDS011;47325;50.506;4.472;2022-12-07T17:15:12;40.50;;;16.40;;
61460;SDS011;47325;50.506;4.472;2022-12-07T17:20:55;33.80;;;13.70;;
61460;SDS011;47325;50.506;4.472;2022-12-07T17:26:47;30.50;;;13.10;;
61460;SDS011;47325;50.506;4.472;2022-12-07T17:32:31;27.50;;;11.80;;
61460;SDS011;47325;50.506;4.472;2022-12-07T17:38:14;24.60;;;11.10;;
61460;SDS011;47325;50.506;4.472;2022-12-07T17:43:57;24.50;;;11.10;;
61460;SDS011;47325;50.506;4.472;2022-12-07T17:49:47;23.20;;;9.90;;
61460;SDS011;47325;50.506;4.472;2022-12-07T17:55:30;25.60;;;9.70;;
61460;SDS011;47325;50.506;4.472;2022-12-07T18:01:34;19.60;;;9.20;;
61460;SDS011;47325;50.506;4.472;2022-12-07T18:07:17;18.60;;;8.10;;
61460;SDS011;47325;50.506;4.472;2022-12-07T18:13:00;18.10;;;8.10;;
61460;SDS011;47325;50.506;4.472;2022-12-07T18:18:43;16.20;;;7.60;;
61460;SDS011;47325;50.506;4.472;2022-12-07T18:24:34;17.10;;;7.00;;
61460;SDS011;47325;50.506;4.472;2022-12-07T18:30:19;14.80;;;6.90;;
61460;SDS011;47325;50.506;4.472;2022-12-07T18:36:23;12.40;;;6.00;;
61460;SDS011;47325;50.506;4.472;2022-12-07T18:42:06;13.30;;;6.10;;
61460;SDS011;47325;50.506;4.472;2022-12-07T18:47:49;12.20;;;5.80;;
61460;SDS011;47325;50.506;4.472;2022-12-07T18:53:33;11.00;;;5.20;;
61460;SDS011;47325;50.506;4.472;2022-12-07T18:59:19;11.10;;;5.30;;
61460;SDS011;47325;50.506;4.472;2022-12-07T19:05:02;11.20;;;5.70;;
61460;SDS011;47325;50.506;4.472;2022-12-07T19:10:46;10.60;;;5.10;;
61460;SDS011;47325;50.506;4.472;2022-12-07T19:16:29;12.80;;;5.20;;
61460;SDS011;47325;50.506;4.472;2022-12-07T19:22:14;9.40;;;4.60;;
61460;SDS011;47325;50.506;4.472;2022-12-07T19:27:57;13.30;;;4.60;;
61460;SDS011;47325;50.506;4.472;2022-12-07T19:33:40;7.80;;;4.20;;
61460;SDS011;47325;50.506;4.472;2022-12-07T19:39:23;9.10;;;4.50;;
61460;SDS011;47325;50.506;4.472;2022-12-07T19:45:07;6.20;;;3.80;;
61460;SDS011;47325;50.506;4.472;2022-12-07T19:50:50;8.10;;;4.20;;
61460;SDS011;47325;50.506;4.472;2022-12-07T19:56:33;8.40;;;4.00;;
61460;SDS011;47325;50.506;4.472;2022-12-07T20:02:17;7.50;;;3.60;;
61460;SDS011;47325;50.506;4.472;2022-12-07T20:08:02;8.60;;;3.70;;
61460;SDS011;47325;50.506;4.472;2022-12-07T20:13:46;9.30;;;3.70;;
61460;SDS011;47325;50.506;4.472;2022-12-07T20:19:31;7.40;;;3.70;;
61460;SDS011;47325;50.506;4.472;2022-12-07T20:25:18;7.40;;;3.30;;
61460;SDS011;47325;50.506;4.472;2022-12-07T20:31:02;6.70;;;3.90;;
61460;SDS011;47325;50.506;4.472;2022-12-07T20:36:46;7.90;;;3.70;;
61460;SDS011;47325;50.506;4.472;2022-12-07T20:42:30;8.10;;;3.50;;
61460;SDS011;47325;50.506;4.472;2022-12-07T20:48:13;7.10;;;3.30;;
61460;SDS011;47325;50.506;4.472;2022-12-07T20:53:56;6.00;;;3.40;;
61460;SDS011;47325;50.506;4.472;2022-12-07T20:59:40;7.40;;;3.40;;
61460;SDS011;47325;50.506;4.472;2022-12-07T21:05:23;7.20;;;3.80;;
61460;SDS011;47325;50.506;4.472;2022-12-07T21:11:09;9.10;;;4.80;;
61460;SDS011;47325;50.506;4.472;2022-12-07T21:16:53;10.80;;;5.40;;
61460;SDS011;47325;50.506;4.472;2022-12-07T21:22:37;8.10;;;5.10;;
61460;SDS011;47325;50.506;4.472;2022-12-07T21:28:20;10.40;;;5.80;;
61460;SDS011;47325;50.506;4.472;2022-12-07T21:34:04;10.00;;;6.30;;
61460;SDS011;47325;50.506;4.472;2022-12-07T21:39:48;12.80;;;7.10;;
61460;SDS011;47325;50.506;4.472;2022-12-07T21:45:32;12.80;;;7.30;;
61460;SDS011;47325;50.506;4.472;2022-12-07T21:51:15;14.00;;;8.20;;
61460;SDS011;47325;50.506;4.472;2022-12-07T21:56:59;15.20;;;8.60;;
61460;SDS011;47325;50.506;4.472;2022-12-07T22:02:43;14.50;;;9.30;;
61460;SDS011;47325;50.506;4.472;2022-12-07T22:08:26;16.30;;;9.70;;
61460;SDS011;47325;50.506;4.472;2022-12-07T22:14:10;17.20;;;10.00;;
61460;SDS011;47325;50.506;4.472;2022-12-07T22:19:53;20.30;;;11.00;;
61460;SDS011;47325;50.506;4.472;2022-12-07T22:25:36;18.00;;;10.50;;
61460;SDS011;47325;50.506;4.472;2022-12-07T22:31:20;19.00;;;10.30;;
61460;SDS011;47325;50.506;4.472;2022-12-07T22:37:05;18.90;;;11.40;;
61460;SDS011;47325;50.506;4.472;2022-12-07T22:42:48;18.40;;;10.60;;
61460;SDS011;47325;50.506;4.472;2022-12-07T22:48:32;20.40;;;11.30;;
61460;SDS011;47325;50.506;4.472;2022-12-07T22:54:15;19.00;;;11.10;;
61460;SDS011;47325;50.506;4.472;2022-12-07T22:59:59;19.10;;;11.00;;
61460;SDS011;47325;50.506;4.472;2022-12-07T23:05:44;20.50;;;11.00;;
61460;SDS011;47325;50.506;4.472;2022-12-07T23:11:28;19.90;;;11.40;;
61460;SDS011;47325;50.506;4.472;2022-12-07T23:17:19;21.00;;;11.80;;
61460;SDS011;47325;50.506;4.472;2022-12-07T23:23:02;18.90;;;11.40;;
61460;SDS011;47325;50.506;4.472;2022-12-07T23:28:45;20.80;;;11.80;;
61460;SDS011;47325;50.506;4.472;2022-12-07T23:34:28;21.90;;;11.90;;
61460;SDS011;47325;50.506;4.472;2022-12-07T23:40:11;21.00;;;12.10;;
61460;SDS011;47325;50.506;4.472;2022-12-07T23:45:54;20.90;;;12.00;;
61460;SDS011;47325;50.506;4.472;2022-12-07T23:51:38;21.40;;;11.60;;
61460;SDS011;47325;50.506;4.472;2022-12-07T23:57:22;22.20;;;12.50;;
